createdAt,value
2019-03-03T00:00:30.350Z,100841.11
2019-03-03T00:03:01.281Z,100833.92
2019-03-03T00:05:31.981Z,100822.78
2019-03-03T00:08:08.807Z,100831.79
2019-03-03T00:10:39.490Z,100833.84
2019-03-03T00:13:10.348Z,100833.92
2019-03-03T00:15:41.089Z,100838.42
2019-03-03T00:18:11.712Z,100831.00
2019-03-03T00:20:44.934Z,100836.94
2019-03-03T00:23:35.814Z,100836.70
2019-03-03T00:26:19.843Z,100830.63
2019-03-03T00:32:12.679Z,100826.81
2019-03-03T00:34:43.293Z,100835.97
2019-03-03T00:37:25.436Z,100829.23
2019-03-03T00:39:57.757Z,100819.20
2019-03-03T00:42:54.062Z,100820.88
2019-03-03T00:45:32.099Z,100824.13
2019-03-03T00:48:04.447Z,100822.78
2019-03-03T00:50:52.039Z,100822.69
2019-03-03T00:53:43.925Z,100808.27
2019-03-03T00:56:16.301Z,100810.95
2019-03-03T00:59:31.257Z,100805.90
2019-03-03T01:02:03.640Z,100798.14
2019-03-03T01:04:35.900Z,100799.35
2019-03-03T01:07:24.179Z,100793.73
2019-03-03T01:10:06.523Z,100795.59
2019-03-03T01:12:55.301Z,100790.48
2019-03-03T01:15:39.851Z,100787.62
2019-03-03T01:21:54.850Z,100792.67
2019-03-03T01:24:33.072Z,100782.89
2019-03-03T01:27:03.692Z,100776.07
2019-03-03T01:29:34.398Z,100772.27
2019-03-03T01:32:48.162Z,100774.33
2019-03-03T01:35:19.470Z,100772.11
2019-03-03T01:38:20.654Z,100763.49
2019-03-03T01:44:04.864Z,100759.25
2019-03-03T01:46:38.790Z,100743.05
2019-03-03T01:49:09.428Z,100744.23
2019-03-03T01:52:08.475Z,100743.76
2019-03-03T01:54:51.791Z,100744.08
2019-03-03T01:57:22.480Z,100746.05
2019-03-03T02:00:00.102Z,100745.64
2019-03-03T02:02:30.999Z,100734.31
2019-03-03T02:08:08.953Z,100723.55
2019-03-03T02:10:39.669Z,100714.56
2019-03-03T02:13:10.280Z,100715.91
2019-03-03T02:15:40.946Z,100699.33
2019-03-03T02:18:11.539Z,100692.09
2019-03-03T02:20:42.220Z,100682.23
2019-03-03T02:23:23.388Z,100674.54
2019-03-03T02:25:53.948Z,100674.23
2019-03-03T02:28:24.545Z,100683.02
2019-03-03T02:30:55.367Z,100668.59
2019-03-03T02:33:25.973Z,100668.78
2019-03-03T02:35:56.969Z,100671.53
2019-03-03T02:38:28.556Z,100674.97
2019-03-03T02:40:59.263Z,100658.19
2019-03-03T02:43:34.651Z,100654.78
2019-03-03T02:46:05.286Z,100653.69
2019-03-03T02:48:35.867Z,100661.77
2019-03-03T02:51:06.547Z,100651.66
2019-03-03T02:53:37.070Z,100652.09
2019-03-03T02:56:07.759Z,100657.69
2019-03-03T02:58:38.409Z,100651.31
2019-03-03T03:01:13.723Z,100654.19
2019-03-03T03:03:56.891Z,100638.73
2019-03-03T03:06:29.200Z,100650.02
2019-03-03T03:09:04.645Z,100641.89
2019-03-03T03:11:55.069Z,100651.36
2019-03-03T03:14:33.551Z,100645.45
2019-03-03T03:17:17.768Z,100638.06
2019-03-03T03:19:49.985Z,100640.54
2019-03-03T03:22:29.332Z,100635.25
2019-03-03T03:25:13.489Z,100639.20
2019-03-03T03:28:04.142Z,100638.47
2019-03-03T03:30:52.854Z,100631.17
2019-03-03T03:33:25.197Z,100625.17
2019-03-03T03:36:06.183Z,100617.66
2019-03-03T03:38:47.621Z,100621.13
2019-03-03T03:41:34.873Z,100622.27
2019-03-03T03:44:07.206Z,100618.44
2019-03-03T03:46:48.620Z,100612.89
2019-03-03T03:49:30.152Z,100620.76
2019-03-03T03:52:14.320Z,100623.80
2019-03-03T03:55:03.077Z,100614.09
2019-03-03T03:57:44.492Z,100608.81
2019-03-03T04:00:19.898Z,100606.63
2019-03-03T04:03:04.361Z,100606.87
2019-03-03T04:05:36.800Z,100614.23
2019-03-03T04:08:20.915Z,100608.22
2019-03-03T04:11:10.441Z,100597.45
2019-03-03T04:14:00.677Z,100604.13
2019-03-03T04:16:41.792Z,100603.88
2019-03-03T04:19:17.003Z,100601.75
2019-03-03T04:22:04.596Z,100590.58
2019-03-03T04:24:36.733Z,100590.67
2019-03-03T04:27:18.113Z,100591.81
2019-03-03T04:29:55.970Z,100587.02
2019-03-03T04:32:40.496Z,100589.69
2019-03-03T04:35:31.173Z,100584.33
2019-03-03T04:38:19.732Z,100593.09
2019-03-03T04:40:51.965Z,100577.31
2019-03-03T04:43:40.626Z,100588.94
2019-03-03T04:46:12.965Z,100585.63
2019-03-03T04:48:53.392Z,100590.35
2019-03-03T04:51:29.315Z,100576.12
2019-03-03T04:54:07.378Z,100562.95
2019-03-03T04:56:39.719Z,100562.21
2019-03-03T04:59:29.505Z,100559.52
2019-03-03T05:02:01.802Z,100552.95
2019-03-03T05:05:18.532Z,100549.86
2019-03-03T05:07:59.718Z,100552.05
2019-03-03T05:10:48.401Z,100549.61
2019-03-03T05:13:32.846Z,100541.75
2019-03-03T05:16:21.552Z,100543.45
2019-03-03T05:18:53.875Z,100538.33
2019-03-03T05:21:58.556Z,100534.75
2019-03-03T05:24:34.175Z,100540.45
2019-03-03T05:27:01.509Z,100536.00
2019-03-03T05:29:32.202Z,100536.69
2019-03-03T05:32:02.814Z,100531.30
2019-03-03T05:34:33.507Z,100530.93
2019-03-03T05:37:08.289Z,100532.84
2019-03-03T05:39:38.964Z,100520.23
2019-03-03T05:42:09.557Z,100504.66
2019-03-03T05:44:40.129Z,100508.44
2019-03-03T05:47:10.735Z,100508.19
2019-03-03T05:49:41.471Z,100509.37
2019-03-03T05:52:12.175Z,100504.05
2019-03-03T05:54:42.871Z,100513.83
2019-03-03T05:57:13.562Z,100509.79
2019-03-03T05:59:44.245Z,100514.13
2019-03-03T06:02:33.124Z,100515.48
2019-03-03T06:05:03.803Z,100510.89
2019-03-03T06:07:46.263Z,100505.55
2019-03-03T06:10:16.863Z,100510.19
2019-03-03T06:12:47.527Z,100503.73
2019-03-03T06:15:18.176Z,100505.65
2019-03-03T06:17:48.858Z,100494.45
2019-03-03T06:20:19.521Z,100492.63
2019-03-03T06:22:54.207Z,100497.72
2019-03-03T06:25:24.940Z,100500.88
2019-03-03T06:27:55.524Z,100508.17
2019-03-03T06:30:26.232Z,100506.42
2019-03-03T06:32:57.909Z,100502.02
2019-03-03T06:35:28.521Z,100499.23
2019-03-03T06:38:01.235Z,100501.22
2019-03-03T06:40:31.810Z,100498.12
2019-03-03T06:43:02.467Z,100491.59
2019-03-03T06:45:33.039Z,100505.52
2019-03-03T06:48:03.766Z,100503.50
2019-03-03T06:50:34.410Z,100497.95
2019-03-03T06:53:09.143Z,100494.75
2019-03-03T06:55:39.731Z,100493.23
2019-03-03T06:58:12.363Z,100500.64
2019-03-03T07:00:42.981Z,100495.45
2019-03-03T07:03:19.570Z,100502.97
2019-03-03T07:05:50.156Z,100498.25
2019-03-03T07:08:20.847Z,100497.78
2019-03-03T07:10:51.592Z,100510.09
2019-03-03T07:13:22.286Z,100500.77
2019-03-03T07:15:54.138Z,100506.28
2019-03-03T07:18:24.893Z,100519.63
2019-03-03T07:20:55.482Z,100508.98
2019-03-03T07:23:37.691Z,100505.30
2019-03-03T07:26:09.355Z,100494.34
2019-03-03T07:28:53.234Z,100498.88
2019-03-03T07:31:28.251Z,100502.53
2019-03-03T07:33:58.863Z,100504.86
2019-03-03T07:36:29.689Z,100500.22
2019-03-03T07:39:00.281Z,100501.87
2019-03-03T07:41:32.601Z,100492.73
2019-03-03T07:44:07.402Z,100497.81
2019-03-03T07:46:38.133Z,100498.05
2019-03-03T07:49:15.252Z,100501.28
2019-03-03T07:51:51.333Z,100487.27
2019-03-03T07:54:22.105Z,100492.84
2019-03-03T07:56:52.846Z,100499.19
2019-03-03T07:59:37.085Z,100487.06
2019-03-03T08:02:11.144Z,100490.63
2019-03-03T08:04:42.062Z,100487.08
2019-03-03T08:07:16.696Z,100493.23
2019-03-03T08:09:47.387Z,100496.59
2019-03-03T08:12:18.212Z,100501.13
2019-03-03T08:14:49.782Z,100497.94
2019-03-03T08:17:20.462Z,100507.16
2019-03-03T08:19:51.196Z,100496.02
2019-03-03T08:22:21.836Z,100507.65
2019-03-03T08:24:52.816Z,100501.02
2019-03-03T08:27:23.578Z,100505.91
2019-03-03T08:29:54.204Z,100505.59
2019-03-03T08:32:24.862Z,100499.05
2019-03-03T08:34:55.780Z,100505.78
2019-03-03T08:37:37.079Z,100499.70
2019-03-03T08:40:09.191Z,100497.65
2019-03-03T08:42:53.727Z,100503.23
2019-03-03T08:45:26.078Z,100502.39
2019-03-03T08:47:58.480Z,100498.35
2019-03-03T08:50:33.715Z,100499.77
2019-03-03T08:53:24.865Z,100501.62
2019-03-03T08:56:08.780Z,100505.83
2019-03-03T08:58:44.040Z,100504.58
2019-03-03T09:01:22.499Z,100492.19
2019-03-03T09:04:05.095Z,100503.10
2019-03-03T09:06:44.418Z,100506.77
2019-03-03T09:09:25.735Z,100501.75
2019-03-03T09:12:10.377Z,100498.12
2019-03-03T09:15:11.828Z,100502.83
2019-03-03T09:20:58.981Z,100496.41
2019-03-03T09:23:31.279Z,100494.11
2019-03-03T09:26:22.027Z,100496.50
2019-03-03T09:28:54.268Z,100495.26
2019-03-03T09:31:55.654Z,100496.03
2019-03-03T09:34:49.490Z,100488.16
2019-03-03T09:37:21.818Z,100484.48
2019-03-03T09:40:09.423Z,100495.16
2019-03-03T09:42:55.042Z,100493.84
2019-03-03T09:45:42.183Z,100491.25
2019-03-03T09:48:32.832Z,100491.82
2019-03-03T09:51:32.653Z,100490.07
2019-03-03T09:54:08.642Z,100499.33
2019-03-03T09:56:44.972Z,100486.26
2019-03-03T09:59:46.154Z,100482.41
2019-03-03T10:02:20.260Z,100486.26
2019-03-03T10:05:00.610Z,100485.88
2019-03-03T10:07:36.237Z,100476.34
2019-03-03T10:10:25.632Z,100485.13
2019-03-03T10:13:17.629Z,100485.30
2019-03-03T10:16:08.462Z,100475.51
2019-03-03T10:18:53.299Z,100478.19
2019-03-03T10:21:34.400Z,100480.22
2019-03-03T10:24:18.840Z,100488.00
2019-03-03T10:27:00.929Z,100478.57
2019-03-03T10:29:33.199Z,100492.16
2019-03-03T10:32:17.355Z,100485.50
2019-03-03T10:35:00.835Z,100476.19
2019-03-03T10:40:55.093Z,100483.02
2019-03-03T10:43:48.956Z,100472.64
2019-03-03T10:46:21.243Z,100477.82
2019-03-03T10:48:55.617Z,100482.06
2019-03-03T10:51:32.651Z,100472.05
2019-03-03T10:54:07.743Z,100475.32
2019-03-03T10:56:56.236Z,100474.16
2019-03-03T10:59:55.170Z,100466.77
2019-03-03T11:05:46.324Z,100460.80
2019-03-03T11:08:41.025Z,100468.41
2019-03-03T11:11:24.766Z,100470.70
2019-03-03T11:13:57.934Z,100473.48
2019-03-03T11:16:37.395Z,100476.48
2019-03-03T11:19:09.697Z,100467.34
2019-03-03T11:21:56.963Z,100464.72
2019-03-03T11:24:32.211Z,100463.75
2019-03-03T11:27:16.526Z,100460.50
2019-03-03T11:30:05.351Z,100446.11
2019-03-03T11:32:53.612Z,100453.83
2019-03-03T11:35:27.915Z,100439.19
2019-03-03T11:38:16.498Z,100434.73
2019-03-03T11:41:13.551Z,100435.06
2019-03-03T11:43:48.609Z,100429.73
2019-03-03T11:46:40.208Z,100422.63
2019-03-03T11:49:36.590Z,100423.69
2019-03-03T11:52:11.704Z,100425.78
2019-03-03T11:54:49.294Z,100423.75
2019-03-03T11:57:30.856Z,100420.39
2019-03-03T12:00:10.034Z,100421.92
2019-03-03T12:02:53.927Z,100413.42
2019-03-03T12:05:22.378Z,100416.23
2019-03-03T12:08:04.847Z,100407.37
2019-03-03T12:10:40.052Z,100412.37
2019-03-03T12:13:19.435Z,100413.23
2019-03-03T12:16:22.277Z,100402.92
2019-03-03T12:19:09.234Z,100396.33
2019-03-03T12:21:41.580Z,100400.86
2019-03-03T12:24:31.309Z,100396.45
2019-03-03T12:27:19.889Z,100388.12
2019-03-03T12:30:10.406Z,100391.08
2019-03-03T12:32:58.301Z,100383.19
2019-03-03T12:35:30.598Z,100393.87
2019-03-03T12:38:06.572Z,100389.14
2019-03-03T12:41:01.393Z,100376.48
2019-03-03T12:43:36.432Z,100387.38
2019-03-03T12:46:25.267Z,100379.75
2019-03-03T12:48:57.567Z,100368.37
2019-03-03T12:51:41.939Z,100376.86
2019-03-03T12:54:14.227Z,100370.90
2019-03-03T12:56:58.596Z,100370.90
2019-03-03T12:59:47.470Z,100376.47
2019-03-03T13:02:48.867Z,100366.06
2019-03-03T13:05:27.370Z,100361.84
2019-03-03T13:07:59.738Z,100353.02
2019-03-03T13:10:35.186Z,100358.90
2019-03-03T13:13:07.569Z,100351.28
2019-03-03T13:15:59.862Z,100348.75
2019-03-03T13:19:00.079Z,100338.19
2019-03-03T13:21:32.401Z,100335.65
2019-03-03T13:24:07.838Z,100333.97
2019-03-03T13:26:41.224Z,100335.84
2019-03-03T13:29:21.773Z,100330.22
2019-03-03T13:31:57.299Z,100329.02
2019-03-03T13:34:57.634Z,100329.33
2019-03-03T13:37:53.052Z,100321.43
2019-03-03T13:40:48.202Z,100321.15
2019-03-03T13:43:18.938Z,100318.03
2019-03-03T13:45:49.647Z,100322.27
2019-03-03T13:48:21.261Z,100326.33
2019-03-03T13:50:52.357Z,100318.52
2019-03-03T13:53:24.150Z,100314.13
2019-03-03T13:55:54.905Z,100309.74
2019-03-03T13:58:25.486Z,100310.33
2019-03-03T14:00:56.260Z,100301.31
2019-03-03T14:03:27.055Z,100290.38
2019-03-03T14:06:18.236Z,100299.18
2019-03-03T14:08:53.656Z,100291.28
2019-03-03T14:11:42.050Z,100286.00
2019-03-03T14:14:13.637Z,100285.83
2019-03-03T14:16:44.235Z,100273.39
2019-03-03T14:19:14.925Z,100277.63
2019-03-03T14:21:45.617Z,100277.37
2019-03-03T14:24:16.376Z,100261.61
2019-03-03T14:26:47.056Z,100255.03
2019-03-03T14:29:17.632Z,100258.88
2019-03-03T14:31:48.218Z,100253.88
2019-03-03T14:34:18.902Z,100250.64
2019-03-03T14:36:49.605Z,100255.00
2019-03-03T14:39:20.224Z,100258.09
2019-03-03T14:42:12.612Z,100253.45
2019-03-03T14:44:43.169Z,100247.50
2019-03-03T14:47:24.021Z,100236.35
2019-03-03T14:49:54.649Z,100238.66
2019-03-03T14:52:25.356Z,100235.09
2019-03-03T14:54:57.039Z,100230.87
2019-03-03T14:57:34.608Z,100240.28
2019-03-03T15:00:17.844Z,100236.83
2019-03-03T15:02:58.952Z,100221.16
2019-03-03T15:05:41.831Z,100228.30
2019-03-03T15:08:17.005Z,100219.29
2019-03-03T15:10:49.983Z,100221.12
2019-03-03T15:13:25.653Z,100200.28
2019-03-03T15:15:59.611Z,100197.38
2019-03-03T15:18:30.195Z,100200.91
2019-03-03T15:21:00.980Z,100198.12
2019-03-03T15:23:43.720Z,100200.44
2019-03-03T15:26:16.439Z,100186.73
2019-03-03T15:28:48.168Z,100191.14
2019-03-03T15:31:18.864Z,100188.68
2019-03-03T15:33:49.553Z,100182.96
2019-03-03T15:36:20.357Z,100165.66
2019-03-03T15:38:51.000Z,100159.06
2019-03-03T15:41:21.711Z,100164.30
2019-03-03T15:43:52.425Z,100154.80
2019-03-03T15:46:26.287Z,100138.27
2019-03-03T15:48:56.939Z,100139.95
2019-03-03T15:51:40.693Z,100138.87
2019-03-03T15:54:16.020Z,100129.91
2019-03-03T15:56:55.603Z,100135.18
2019-03-03T15:59:26.278Z,100121.45
2019-03-03T16:01:56.881Z,100120.12
2019-03-03T16:04:27.643Z,100120.59
2019-03-03T16:07:00.226Z,100109.20
2019-03-03T16:09:41.066Z,100099.99
2019-03-03T16:12:11.678Z,100104.94
2019-03-03T16:14:42.334Z,100091.91
2019-03-03T16:17:13.991Z,100089.19
2019-03-03T16:19:44.628Z,100085.14
2019-03-03T16:22:15.208Z,100080.63
2019-03-03T16:24:49.949Z,100078.68
2019-03-03T16:27:21.702Z,100069.25
2019-03-03T16:29:57.157Z,100063.23
2019-03-03T16:32:33.735Z,100054.88
2019-03-03T16:35:05.588Z,100052.78
2019-03-03T16:37:36.500Z,100052.42
2019-03-03T16:40:09.472Z,100050.59
2019-03-03T16:42:52.417Z,100047.37
2019-03-03T16:45:23.200Z,100045.67
2019-03-03T16:47:56.176Z,100041.16
2019-03-03T16:50:33.069Z,100039.06
2019-03-03T16:53:05.543Z,100037.93
2019-03-03T16:55:37.696Z,100025.34
2019-03-03T16:58:09.686Z,100024.21
2019-03-03T17:00:40.756Z,100023.59
2019-03-03T17:03:22.355Z,100022.12
2019-03-03T17:05:54.106Z,100020.16
2019-03-03T17:08:26.782Z,100033.66
2019-03-03T17:11:03.247Z,100024.59
2019-03-03T17:13:34.355Z,100027.17
2019-03-03T17:16:10.574Z,100010.32
2019-03-03T17:18:48.734Z,100007.66
2019-03-03T17:21:27.634Z,100003.13
2019-03-03T17:23:58.302Z,100001.27
2019-03-03T17:26:35.059Z,100010.23
2019-03-03T17:29:20.160Z,100000.18
2019-03-03T17:31:55.372Z,99990.73
2019-03-03T17:34:26.062Z,99996.78
2019-03-03T17:37:04.842Z,99990.51
2019-03-03T17:39:36.495Z,99987.33
2019-03-03T17:42:07.324Z,99986.95
2019-03-03T17:44:38.036Z,99987.80
2019-03-03T17:47:09.082Z,99992.69
2019-03-03T17:49:39.858Z,99983.23
2019-03-03T17:52:17.053Z,99978.35
2019-03-03T17:54:47.721Z,99970.13
2019-03-03T17:57:34.176Z,99975.78
2019-03-03T18:00:06.980Z,99970.38
2019-03-03T18:02:40.082Z,99973.09
2019-03-03T18:05:17.363Z,99968.42
2019-03-03T18:07:48.428Z,99956.48
2019-03-03T18:10:20.751Z,99957.97
2019-03-03T18:12:52.063Z,99960.32
2019-03-03T18:15:23.051Z,99953.56
2019-03-03T18:18:06.771Z,99952.08
2019-03-03T18:20:39.713Z,99961.67
2019-03-03T18:23:10.442Z,99952.57
2019-03-03T18:25:41.178Z,99945.69
2019-03-03T18:28:17.379Z,99944.72
2019-03-03T18:30:48.037Z,99930.22
2019-03-03T18:33:30.685Z,99933.92
2019-03-03T18:36:01.321Z,99932.44
2019-03-03T18:38:36.163Z,99926.30
2019-03-03T18:41:09.111Z,99916.72
2019-03-03T18:43:52.179Z,99914.63
2019-03-03T18:46:23.110Z,99902.60
2019-03-03T18:48:53.904Z,99895.23
2019-03-03T18:51:27.926Z,99898.42
2019-03-03T18:54:08.032Z,99897.20
2019-03-03T18:56:39.978Z,99891.31
2019-03-03T18:59:11.818Z,99895.75
2019-03-03T19:01:54.064Z,99874.85
2019-03-03T19:04:32.385Z,99875.59
2019-03-03T19:07:04.482Z,99865.91
2019-03-03T19:09:38.247Z,99863.20
2019-03-03T19:12:08.858Z,99853.14
2019-03-03T19:14:40.608Z,99855.61
2019-03-03T19:17:14.812Z,99849.20
2019-03-03T19:19:46.294Z,99836.69
2019-03-03T19:22:19.362Z,99842.45
2019-03-03T19:25:01.742Z,99833.73
2019-03-03T19:27:33.489Z,99840.14
2019-03-03T19:30:23.168Z,99830.06
2019-03-03T19:33:02.020Z,99823.05
2019-03-03T19:35:34.477Z,99829.19
2019-03-03T19:38:06.707Z,99820.86
2019-03-03T19:40:37.310Z,99816.43
2019-03-03T19:43:10.369Z,99816.20
2019-03-03T19:45:41.545Z,99822.94
2019-03-03T19:48:13.991Z,99815.93
2019-03-03T19:50:49.253Z,99810.28
2019-03-03T19:53:19.867Z,99808.07
2019-03-03T19:55:56.585Z,99804.50
2019-03-03T19:58:27.931Z,99807.69
2019-03-03T20:00:58.579Z,99801.67
2019-03-03T20:03:29.683Z,99801.55
2019-03-03T20:06:00.456Z,99799.09
2019-03-03T20:08:34.712Z,99795.91
2019-03-03T20:11:15.804Z,99797.25
2019-03-03T20:13:47.207Z,99800.31
2019-03-03T20:16:20.283Z,99791.36
2019-03-03T20:18:54.437Z,99777.84
2019-03-03T20:21:28.004Z,99783.02
2019-03-03T20:24:19.239Z,99769.74
2019-03-03T20:27:05.984Z,99756.96
2019-03-03T20:29:37.873Z,99762.75
2019-03-03T20:32:26.490Z,99772.55
2019-03-03T20:35:09.651Z,99762.86
2019-03-03T20:37:44.736Z,99746.16
2019-03-03T20:40:24.698Z,99737.08
2019-03-03T20:42:58.663Z,99741.64
2019-03-03T20:45:40.371Z,99734.73
2019-03-03T20:48:15.881Z,99735.63
2019-03-03T20:50:49.634Z,99731.94
2019-03-03T20:53:21.108Z,99735.83
2019-03-03T20:55:52.129Z,99719.02
2019-03-03T20:58:42.604Z,99726.48
2019-03-03T21:01:16.390Z,99716.19
2019-03-03T21:03:47.161Z,99728.30
2019-03-03T21:06:30.134Z,99720.97
2019-03-03T21:09:06.375Z,99720.59
2019-03-03T21:11:47.541Z,99726.11
2019-03-03T21:14:19.149Z,99729.44
2019-03-03T21:16:54.113Z,99734.21
2019-03-03T21:19:30.238Z,99740.48
2019-03-03T21:22:05.148Z,99720.46
2019-03-03T21:24:35.894Z,99696.48
2019-03-03T21:27:06.580Z,99687.30
2019-03-03T21:29:38.270Z,99694.41
2019-03-03T21:32:21.248Z,99697.38
2019-03-03T21:34:59.020Z,99693.16
2019-03-03T21:37:48.015Z,99691.08
2019-03-03T21:40:19.895Z,99694.51
2019-03-03T21:42:50.614Z,99680.06
2019-03-03T21:45:21.453Z,99682.00
2019-03-03T21:47:55.024Z,99662.73
2019-03-03T21:50:25.778Z,99672.78
2019-03-03T21:53:11.697Z,99667.03
2019-03-03T21:55:42.360Z,99658.02
2019-03-03T21:58:13.667Z,99639.86
2019-03-03T22:00:44.520Z,99637.16
2019-03-03T22:03:15.147Z,99633.59
2019-03-03T22:05:47.670Z,99610.23
2019-03-03T22:08:25.611Z,99614.41
2019-03-03T22:10:56.281Z,99600.25
2019-03-03T22:13:26.861Z,99600.03
2019-03-03T22:16:00.726Z,99579.48
2019-03-03T22:18:35.037Z,99570.53
2019-03-03T22:21:05.545Z,99561.16
2019-03-03T22:23:36.301Z,99564.59
2019-03-03T22:26:07.107Z,99563.24
2019-03-03T22:28:37.849Z,99545.13
2019-03-03T22:31:08.565Z,99514.27
2019-03-03T22:33:39.234Z,99512.92
2019-03-03T22:36:10.117Z,99501.01
2019-03-03T22:38:48.808Z,99491.14
2019-03-03T22:41:19.311Z,99482.45
2019-03-03T22:43:49.946Z,99471.16
2019-03-03T22:46:21.038Z,99453.58
2019-03-03T22:48:51.769Z,99469.20
2019-03-03T22:51:45.677Z,99464.80
2019-03-03T22:54:16.414Z,99451.91
2019-03-03T22:56:53.310Z,99422.37
2019-03-03T22:59:23.862Z,99439.43
2019-03-03T23:01:54.508Z,99430.95
2019-03-03T23:04:40.795Z,99430.48
2019-03-03T23:07:40.889Z,99434.22
2019-03-03T23:10:58.713Z,99440.45
2019-03-03T23:14:10.135Z,99442.95
2019-03-03T23:17:06.615Z,99466.67
2019-03-03T23:20:24.689Z,99459.82
2019-03-03T23:23:35.535Z,99443.38
2019-03-03T23:26:16.650Z,99459.15
2019-03-03T23:28:44.075Z,99470.54
2019-03-03T23:31:39.339Z,99465.37
2019-03-03T23:34:12.022Z,99456.79
2019-03-03T23:36:43.332Z,99473.82
2019-03-03T23:39:24.248Z,99456.58
2019-03-03T23:42:00.669Z,99459.91
2019-03-03T23:44:31.312Z,99458.66
2019-03-03T23:47:02.037Z,99442.87
2019-03-03T23:49:46.560Z,99442.63
2019-03-03T23:52:33.753Z,99445.83
2019-03-03T23:55:04.794Z,99444.08
2019-03-03T23:57:35.357Z,99436.31
